sensor_id;sensor_type;location;lat;lon;timestamp;P1;durP1;ratioP1;P2;durP2;ratioP2
7471;SDS011;3777;48.722;8.110;2023-04-23T00:01:23;9.17;;;6.47;;
7471;SDS011;3777;48.722;8.110;2023-04-23T00:03:53;7.60;;;6.80;;
7471;SDS011;3777;48.722;8.110;2023-04-23T00:06:21;9.90;;;6.47;;
7471;SDS011;3777;48.722;8.110;2023-04-23T00:08:51;10.63;;;6.07;;
7471;SDS011;3777;48.722;8.110;2023-04-23T00:11:20;7.17;;;6.43;;
7471;SDS011;3777;48.722;8.110;2023-04-23T00:13:48;9.50;;;6.17;;
7471;SDS011;3777;48.722;8.110;2023-04-23T00:16:17;9.13;;;7.33;;
7471;SDS011;3777;48.722;8.110;2023-04-23T00:18:45;8.77;;;6.90;;
7471;SDS011;3777;48.722;8.110;2023-04-23T00:21:12;9.63;;;6.90;;
7471;SDS011;3777;48.722;8.110;2023-04-23T00:23:39;8.00;;;6.93;;
7471;SDS011;3777;48.722;8.110;2023-04-23T00:26:06;8.70;;;6.43;;
7471;SDS011;3777;48.722;8.110;2023-04-23T00:28:34;9.57;;;6.77;;
7471;SDS011;3777;48.722;8.110;2023-04-23T00:31:01;8.90;;;7.00;;
7471;SDS011;3777;48.722;8.110;2023-04-23T00:33:28;11.27;;;7.40;;
7471;SDS011;3777;48.722;8.110;2023-04-23T00:35:55;7.67;;;6.13;;
7471;SDS011;3777;48.722;8.110;2023-04-23T00:38:22;9.03;;;7.27;;
7471;SDS011;3777;48.722;8.110;2023-04-23T00:40:50;8.43;;;7.17;;
7471;SDS011;3777;48.722;8.110;2023-04-23T00:43:17;8.10;;;6.60;;
7471;SDS011;3777;48.722;8.110;2023-04-23T00:45:49;9.10;;;6.80;;
7471;SDS011;3777;48.722;8.110;2023-04-23T00:48:16;8.60;;;6.70;;
7471;SDS011;3777;48.722;8.110;2023-04-23T00:50:43;9.67;;;6.93;;
7471;SDS011;3777;48.722;8.110;2023-04-23T00:53:11;9.97;;;6.90;;
7471;SDS011;3777;48.722;8.110;2023-04-23T00:55:38;8.57;;;7.47;;
7471;SDS011;3777;48.722;8.110;2023-04-23T00:58:06;8.30;;;6.93;;
7471;SDS011;3777;48.722;8.110;2023-04-23T01:00:33;11.00;;;7.43;;
7471;SDS011;3777;48.722;8.110;2023-04-23T01:03:05;8.63;;;7.13;;
7471;SDS011;3777;48.722;8.110;2023-04-23T01:05:32;8.50;;;6.60;;
7471;SDS011;3777;48.722;8.110;2023-04-23T01:07:59;7.63;;;6.77;;
7471;SDS011;3777;48.722;8.110;2023-04-23T01:10:26;7.63;;;6.57;;
7471;SDS011;3777;48.722;8.110;2023-04-23T01:12:53;9.10;;;7.60;;
7471;SDS011;3777;48.722;8.110;2023-04-23T01:15:20;8.60;;;6.80;;
7471;SDS011;3777;48.722;8.110;2023-04-23T01:17:47;8.23;;;7.10;;
7471;SDS011;3777;48.722;8.110;2023-04-23T01:20:16;11.03;;;6.73;;
7471;SDS011;3777;48.722;8.110;2023-04-23T01:22:44;8.93;;;6.83;;
7471;SDS011;3777;48.722;8.110;2023-04-23T01:25:11;7.30;;;6.00;;
7471;SDS011;3777;48.722;8.110;2023-04-23T01:27:38;9.03;;;6.53;;
7471;SDS011;3777;48.722;8.110;2023-04-23T01:30:06;8.67;;;6.43;;
7471;SDS011;3777;48.722;8.110;2023-04-23T01:32:34;7.73;;;6.60;;
7471;SDS011;3777;48.722;8.110;2023-04-23T01:35:02;7.10;;;5.83;;
7471;SDS011;3777;48.722;8.110;2023-04-23T01:37:32;7.80;;;6.20;;
7471;SDS011;3777;48.722;8.110;2023-04-23T01:40:02;7.43;;;6.00;;
7471;SDS011;3777;48.722;8.110;2023-04-23T01:42:30;6.40;;;5.80;;
7471;SDS011;3777;48.722;8.110;2023-04-23T01:44:57;6.67;;;5.80;;
7471;SDS011;3777;48.722;8.110;2023-04-23T01:47:24;8.37;;;6.37;;
7471;SDS011;3777;48.722;8.110;2023-04-23T01:49:51;7.47;;;6.10;;
7471;SDS011;3777;48.722;8.110;2023-04-23T01:52:18;7.10;;;5.80;;
7471;SDS011;3777;48.722;8.110;2023-04-23T01:54:45;7.60;;;5.90;;
7471;SDS011;3777;48.722;8.110;2023-04-23T01:57:13;6.63;;;5.57;;
7471;SDS011;3777;48.722;8.110;2023-04-23T01:59:40;9.30;;;6.23;;
7471;SDS011;3777;48.722;8.110;2023-04-23T02:02:08;6.80;;;5.60;;
7471;SDS011;3777;48.722;8.110;2023-04-23T02:04:37;7.93;;;5.80;;
7471;SDS011;3777;48.722;8.110;2023-04-23T02:07:06;7.47;;;6.20;;
7471;SDS011;3777;48.722;8.110;2023-04-23T02:09:33;7.47;;;5.53;;
7471;SDS011;3777;48.722;8.110;2023-04-23T02:12:00;6.57;;;5.27;;
7471;SDS011;3777;48.722;8.110;2023-04-23T02:14:28;6.77;;;5.73;;
7471;SDS011;3777;48.722;8.110;2023-04-23T02:16:55;8.20;;;5.50;;
7471;SDS011;3777;48.722;8.110;2023-04-23T02:19:22;7.10;;;5.80;;
7471;SDS011;3777;48.722;8.110;2023-04-23T02:21:50;6.07;;;5.43;;
7471;SDS011;3777;48.722;8.110;2023-04-23T02:24:17;6.13;;;5.33;;
7471;SDS011;3777;48.722;8.110;2023-04-23T02:26:44;6.00;;;5.40;;
7471;SDS011;3777;48.722;8.110;2023-04-23T02:29:11;6.63;;;5.30;;
7471;SDS011;3777;48.722;8.110;2023-04-23T02:31:40;5.97;;;5.37;;
7471;SDS011;3777;48.722;8.110;2023-04-23T02:34:07;6.77;;;5.33;;
7471;SDS011;3777;48.722;8.110;2023-04-23T02:36:34;5.63;;;5.03;;
7471;SDS011;3777;48.722;8.110;2023-04-23T02:39:02;6.50;;;5.03;;
7471;SDS011;3777;48.722;8.110;2023-04-23T02:41:29;7.03;;;4.57;;
7471;SDS011;3777;48.722;8.110;2023-04-23T02:43:56;4.67;;;4.17;;
7471;SDS011;3777;48.722;8.110;2023-04-23T02:46:23;5.53;;;4.70;;
7471;SDS011;3777;48.722;8.110;2023-04-23T02:48:52;6.33;;;4.70;;
7471;SDS011;3777;48.722;8.110;2023-04-23T02:51:18;5.23;;;4.73;;
7471;SDS011;3777;48.722;8.110;2023-04-23T02:53:45;5.83;;;4.80;;
7471;SDS011;3777;48.722;8.110;2023-04-23T02:56:12;6.97;;;5.00;;
7471;SDS011;3777;48.722;8.110;2023-04-23T02:58:39;6.77;;;4.83;;
7471;SDS011;3777;48.722;8.110;2023-04-23T03:01:06;5.40;;;4.63;;
7471;SDS011;3777;48.722;8.110;2023-04-23T03:03:33;7.40;;;5.03;;
7471;SDS011;3777;48.722;8.110;2023-04-23T03:06:01;5.37;;;4.73;;
7471;SDS011;3777;48.722;8.110;2023-04-23T03:08:29;5.37;;;4.87;;
7471;SDS011;3777;48.722;8.110;2023-04-23T03:10:55;4.50;;;4.00;;
7471;SDS011;3777;48.722;8.110;2023-04-23T03:13:22;4.83;;;4.30;;
7471;SDS011;3777;48.722;8.110;2023-04-23T03:15:50;5.23;;;4.37;;
7471;SDS011;3777;48.722;8.110;2023-04-23T03:18:18;5.07;;;4.57;;
7471;SDS011;3777;48.722;8.110;2023-04-23T03:20:45;5.97;;;4.20;;
7471;SDS011;3777;48.722;8.110;2023-04-23T03:23:14;5.50;;;4.50;;
7471;SDS011;3777;48.722;8.110;2023-04-23T03:25:41;4.97;;;4.30;;
7471;SDS011;3777;48.722;8.110;2023-04-23T03:28:08;4.80;;;4.40;;
7471;SDS011;3777;48.722;8.110;2023-04-23T03:30:35;5.37;;;4.43;;
7471;SDS011;3777;48.722;8.110;2023-04-23T03:33:02;5.73;;;4.63;;
7471;SDS011;3777;48.722;8.110;2023-04-23T03:35:29;4.70;;;4.10;;
7471;SDS011;3777;48.722;8.110;2023-04-23T03:37:56;5.63;;;4.30;;
7471;SDS011;3777;48.722;8.110;2023-04-23T03:40:24;5.80;;;4.63;;
7471;SDS011;3777;48.722;8.110;2023-04-23T03:42:51;5.67;;;5.10;;
7471;SDS011;3777;48.722;8.110;2023-04-23T03:45:18;6.60;;;5.30;;
7471;SDS011;3777;48.722;8.110;2023-04-23T03:47:45;5.77;;;5.17;;
7471;SDS011;3777;48.722;8.110;2023-04-23T03:50:12;7.83;;;4.90;;
7471;SDS011;3777;48.722;8.110;2023-04-23T03:52:39;6.10;;;5.27;;
7471;SDS011;3777;48.722;8.110;2023-04-23T03:55:06;5.67;;;5.10;;
7471;SDS011;3777;48.722;8.110;2023-04-23T03:57:35;6.13;;;5.00;;
7471;SDS011;3777;48.722;8.110;2023-04-23T04:00:02;5.53;;;4.93;;
7471;SDS011;3777;48.722;8.110;2023-04-23T04:02:32;6.10;;;4.87;;
7471;SDS011;3777;48.722;8.110;2023-04-23T04:04:59;5.00;;;4.50;;
7471;SDS011;3777;48.722;8.110;2023-04-23T04:07:26;4.83;;;4.33;;
7471;SDS011;3777;48.722;8.110;2023-04-23T04:09:53;4.53;;;4.13;;
7471;SDS011;3777;48.722;8.110;2023-04-23T04:12:20;4.53;;;4.13;;
7471;SDS011;3777;48.722;8.110;2023-04-23T04:14:48;4.97;;;4.20;;
7471;SDS011;3777;48.722;8.110;2023-04-23T04:17:15;6.53;;;4.50;;
7471;SDS011;3777;48.722;8.110;2023-04-23T04:19:42;4.83;;;4.33;;
7471;SDS011;3777;48.722;8.110;2023-04-23T04:22:09;4.87;;;4.47;;
7471;SDS011;3777;48.722;8.110;2023-04-23T04:24:36;4.80;;;4.30;;
7471;SDS011;3777;48.722;8.110;2023-04-23T04:27:05;4.90;;;4.40;;
7471;SDS011;3777;48.722;8.110;2023-04-23T04:29:33;5.67;;;4.87;;
7471;SDS011;3777;48.722;8.110;2023-04-23T04:32:01;8.97;;;8.07;;
7471;SDS011;3777;48.722;8.110;2023-04-23T04:34:29;11.67;;;10.47;;
7471;SDS011;3777;48.722;8.110;2023-04-23T04:36:56;11.17;;;8.43;;
7471;SDS011;3777;48.722;8.110;2023-04-23T04:39:23;8.33;;;6.60;;
7471;SDS011;3777;48.722;8.110;2023-04-23T04:41:50;7.57;;;5.60;;
7471;SDS011;3777;48.722;8.110;2023-04-23T04:44:17;6.17;;;5.37;;
7471;SDS011;3777;48.722;8.110;2023-04-23T04:46:44;5.53;;;4.97;;
7471;SDS011;3777;48.722;8.110;2023-04-23T04:49:13;7.03;;;4.73;;
7471;SDS011;3777;48.722;8.110;2023-04-23T04:51:42;6.00;;;4.93;;
7471;SDS011;3777;48.722;8.110;2023-04-23T04:54:09;5.50;;;5.00;;
7471;SDS011;3777;48.722;8.110;2023-04-23T04:56:36;6.87;;;5.10;;
7471;SDS011;3777;48.722;8.110;2023-04-23T04:59:03;5.10;;;4.60;;
7471;SDS011;3777;48.722;8.110;2023-04-23T05:01:30;5.17;;;4.67;;
7471;SDS011;3777;48.722;8.110;2023-04-23T05:03:58;5.93;;;4.90;;
7471;SDS011;3777;48.722;8.110;2023-04-23T05:06:26;4.80;;;4.40;;
7471;SDS011;3777;48.722;8.110;2023-04-23T05:08:53;4.83;;;4.07;;
7471;SDS011;3777;48.722;8.110;2023-04-23T05:11:21;5.20;;;3.90;;
7471;SDS011;3777;48.722;8.110;2023-04-23T05:13:48;4.30;;;3.90;;
7471;SDS011;3777;48.722;8.110;2023-04-23T05:16:14;4.63;;;4.22;;
7471;SDS011;3777;48.722;8.110;2023-04-23T05:18:41;5.27;;;3.97;;
7471;SDS011;3777;48.722;8.110;2023-04-23T05:21:08;4.13;;;3.73;;
7471;SDS011;3777;48.722;8.110;2023-04-23T05:23:37;4.00;;;3.70;;
7471;SDS011;3777;48.722;8.110;2023-04-23T05:26:04;4.23;;;2.90;;
7471;SDS011;3777;48.722;8.110;2023-04-23T05:28:31;3.00;;;2.70;;
7471;SDS011;3777;48.722;8.110;2023-04-23T05:30:58;2.90;;;2.60;;
7471;SDS011;3777;48.722;8.110;2023-04-23T05:33:25;2.77;;;2.47;;
7471;SDS011;3777;48.722;8.110;2023-04-23T05:35:52;2.53;;;2.20;;
7471;SDS011;3777;48.722;8.110;2023-04-23T05:38:19;2.53;;;2.33;;
7471;SDS011;3777;48.722;8.110;2023-04-23T05:40:48;2.20;;;2.00;;
7471;SDS011;3777;48.722;8.110;2023-04-23T05:43:15;2.60;;;2.10;;
7471;SDS011;3777;48.722;8.110;2023-04-23T05:45:42;1.83;;;1.73;;
7471;SDS011;3777;48.722;8.110;2023-04-23T05:48:09;2.47;;;2.27;;
7471;SDS011;3777;48.722;8.110;2023-04-23T05:50:36;2.00;;;1.90;;
7471;SDS011;3777;48.722;8.110;2023-04-23T05:53:03;2.93;;;2.10;;
7471;SDS011;3777;48.722;8.110;2023-04-23T05:55:30;2.47;;;2.27;;
7471;SDS011;3777;48.722;8.110;2023-04-23T05:57:58;2.13;;;1.93;;
7471;SDS011;3777;48.722;8.110;2023-04-23T06:00:26;3.87;;;2.23;;
7471;SDS011;3777;48.722;8.110;2023-04-23T06:02:54;2.23;;;1.73;;
7471;SDS011;3777;48.722;8.110;2023-04-23T06:05:21;2.33;;;1.60;;
7471;SDS011;3777;48.722;8.110;2023-04-23T06:07:48;3.60;;;1.80;;
7471;SDS011;3777;48.722;8.110;2023-04-23T06:10:14;1.97;;;1.63;;
7471;SDS011;3777;48.722;8.110;2023-04-23T06:12:41;1.60;;;1.50;;
7471;SDS011;3777;48.722;8.110;2023-04-23T06:15:10;1.57;;;1.47;;
7471;SDS011;3777;48.722;8.110;2023-04-23T06:17:37;1.90;;;1.43;;
7471;SDS011;3777;48.722;8.110;2023-04-23T06:20:05;1.93;;;1.40;;
7471;SDS011;3777;48.722;8.110;2023-04-23T06:22:33;2.23;;;1.50;;
7471;SDS011;3777;48.722;8.110;2023-04-23T06:25:00;1.50;;;1.20;;
7471;SDS011;3777;48.722;8.110;2023-04-23T06:27:27;1.40;;;1.30;;
7471;SDS011;3777;48.722;8.110;2023-04-23T06:29:53;1.90;;;1.30;;
7471;SDS011;3777;48.722;8.110;2023-04-23T06:32:22;4.83;;;1.43;;
7471;SDS011;3777;48.722;8.110;2023-04-23T06:34:49;2.70;;;1.30;;
7471;SDS011;3777;48.722;8.110;2023-04-23T06:37:15;1.60;;;1.30;;
7471;SDS011;3777;48.722;8.110;2023-04-23T06:39:42;1.90;;;1.30;;
7471;SDS011;3777;48.722;8.110;2023-04-23T06:42:10;1.77;;;1.20;;
7471;SDS011;3777;48.722;8.110;2023-04-23T06:44:36;2.20;;;1.30;;
7471;SDS011;3777;48.722;8.110;2023-04-23T06:47:03;2.33;;;1.33;;
7471;SDS011;3777;48.722;8.110;2023-04-23T06:49:32;1.70;;;1.20;;
7471;SDS011;3777;48.722;8.110;2023-04-23T06:51:59;1.50;;;1.30;;
7471;SDS011;3777;48.722;8.110;2023-04-23T06:54:26;1.30;;;1.20;;
7471;SDS011;3777;48.722;8.110;2023-04-23T06:56:53;2.15;;;1.17;;
7471;SDS011;3777;48.722;8.110;2023-04-23T06:59:21;1.60;;;1.20;;
7471;SDS011;3777;48.722;8.110;2023-04-23T07:01:47;1.80;;;1.33;;
7471;SDS011;3777;48.722;8.110;2023-04-23T07:04:14;1.30;;;1.20;;
7471;SDS011;3777;48.722;8.110;2023-04-23T07:06:43;1.90;;;1.50;;
7471;SDS011;3777;48.722;8.110;2023-04-23T07:09:10;1.20;;;1.10;;
7471;SDS011;3777;48.722;8.110;2023-04-23T07:11:36;1.40;;;1.30;;
7471;SDS011;3777;48.722;8.110;2023-04-23T07:14:03;1.43;;;1.23;;
7471;SDS011;3777;48.722;8.110;2023-04-23T07:16:31;1.87;;;1.20;;
7471;SDS011;3777;48.722;8.110;2023-04-23T07:18:58;1.60;;;1.40;;
7471;SDS011;3777;48.722;8.110;2023-04-23T07:21:26;2.80;;;1.40;;
7471;SDS011;3777;48.722;8.110;2023-04-23T07:23:55;2.55;;;1.30;;
7471;SDS011;3777;48.722;8.110;2023-04-23T07:26:24;1.90;;;1.40;;
7471;SDS011;3777;48.722;8.110;2023-04-23T07:28:51;1.30;;;1.20;;
7471;SDS011;3777;48.722;8.110;2023-04-23T07:31:18;2.90;;;1.40;;
7471;SDS011;3777;48.722;8.110;2023-04-23T07:33:45;1.30;;;1.20;;
7471;SDS011;3777;48.722;8.110;2023-04-23T07:36:12;1.77;;;1.40;;
7471;SDS011;3777;48.722;8.110;2023-04-23T07:38:39;1.40;;;1.30;;
7471;SDS011;3777;48.722;8.110;2023-04-23T07:41:07;1.73;;;1.33;;
7471;SDS011;3777;48.722;8.110;2023-04-23T07:43:34;1.92;;;1.48;;
7471;SDS011;3777;48.722;8.110;2023-04-23T07:46:01;1.48;;;1.38;;
7471;SDS011;3777;48.722;8.110;2023-04-23T07:48:29;1.40;;;1.30;;
7471;SDS011;3777;48.722;8.110;2023-04-23T07:50:56;1.65;;;1.45;;
7471;SDS011;3777;48.722;8.110;2023-04-23T07:53:23;1.85;;;1.50;;
7471;SDS011;3777;48.722;8.110;2023-04-23T07:55:50;1.58;;;1.48;;
7471;SDS011;3777;48.722;8.110;2023-04-23T07:58:18;3.88;;;1.48;;
7471;SDS011;3777;48.722;8.110;2023-04-23T08:00:45;1.42;;;1.30;;
7471;SDS011;3777;48.722;8.110;2023-04-23T08:03:12;1.98;;;1.40;;
7471;SDS011;3777;48.722;8.110;2023-04-23T08:05:39;2.50;;;1.30;;
7471;SDS011;3777;48.722;8.110;2023-04-23T08:08:06;1.17;;;1.08;;
7471;SDS011;3777;48.722;8.110;2023-04-23T08:10:33;1.30;;;1.20;;
7471;SDS011;3777;48.722;8.110;2023-04-23T08:13:01;1.58;;;1.48;;
7471;SDS011;3777;48.722;8.110;2023-04-23T08:15:30;1.90;;;1.40;;
7471;SDS011;3777;48.722;8.110;2023-04-23T08:17:56;3.25;;;1.30;;
7471;SDS011;3777;48.722;8.110;2023-04-23T08:20:24;1.60;;;1.20;;
7471;SDS011;3777;48.722;8.110;2023-04-23T08:22:51;1.88;;;1.10;;
7471;SDS011;3777;48.722;8.110;2023-04-23T08:25:19;2.38;;;1.35;;
7471;SDS011;3777;48.722;8.110;2023-04-23T08:27:46;1.27;;;1.17;;
7471;SDS011;3777;48.722;8.110;2023-04-23T08:30:14;1.35;;;1.20;;
7471;SDS011;3777;48.722;8.110;2023-04-23T08:32:42;2.08;;;1.30;;
7471;SDS011;3777;48.722;8.110;2023-04-23T08:35:09;1.35;;;1.20;;
7471;SDS011;3777;48.722;8.110;2023-04-23T08:37:36;1.95;;;1.20;;
7471;SDS011;3777;48.722;8.110;2023-04-23T08:40:05;2.40;;;1.30;;
7471;SDS011;3777;48.722;8.110;2023-04-23T08:42:36;1.38;;;1.27;;
7471;SDS011;3777;48.722;8.110;2023-04-23T08:45:06;1.50;;;1.30;;
7471;SDS011;3777;48.722;8.110;2023-04-23T08:47:33;1.58;;;1.27;;
7471;SDS011;3777;48.722;8.110;2023-04-23T08:50:02;1.83;;;1.48;;
7471;SDS011;3777;48.722;8.110;2023-04-23T08:52:32;1.67;;;1.40;;
7471;SDS011;3777;48.722;8.110;2023-04-23T08:55:00;1.63;;;1.20;;
7471;SDS011;3777;48.722;8.110;2023-04-23T08:57:30;1.77;;;1.40;;
7471;SDS011;3777;48.722;8.110;2023-04-23T08:59:57;1.40;;;1.20;;
7471;SDS011;3777;48.722;8.110;2023-04-23T09:02:25;1.38;;;1.27;;
7471;SDS011;3777;48.722;8.110;2023-04-23T09:04:54;2.72;;;1.10;;
7471;SDS011;3777;48.722;8.110;2023-04-23T09:07:22;1.40;;;1.30;;
7471;SDS011;3777;48.722;8.110;2023-04-23T09:09:49;1.42;;;1.20;;
7471;SDS011;3777;48.722;8.110;2023-04-23T09:12:16;1.42;;;1.10;;
7471;SDS011;3777;48.722;8.110;2023-04-23T09:14:43;1.63;;;1.30;;
7471;SDS011;3777;48.722;8.110;2023-04-23T09:17:10;2.08;;;1.30;;
7471;SDS011;3777;48.722;8.110;2023-04-23T09:19:37;2.45;;;1.10;;
7471;SDS011;3777;48.722;8.110;2023-04-23T09:22:05;1.52;;;1.35;;
7471;SDS011;3777;48.722;8.110;2023-04-23T09:24:34;2.88;;;1.30;;
7471;SDS011;3777;48.722;8.110;2023-04-23T09:27:01;1.88;;;1.27;;
7471;SDS011;3777;48.722;8.110;2023-04-23T09:29:29;1.65;;;1.10;;
7471;SDS011;3777;48.722;8.110;2023-04-23T09:31:57;1.65;;;1.30;;
7471;SDS011;3777;48.722;8.110;2023-04-23T09:34:33;2.03;;;1.30;;
7471;SDS011;3777;48.722;8.110;2023-04-23T09:37:01;1.40;;;1.30;;
7471;SDS011;3777;48.722;8.110;2023-04-23T09:39:32;1.98;;;1.35;;
7471;SDS011;3777;48.722;8.110;2023-04-23T09:42:03;1.38;;;1.27;;
7471;SDS011;3777;48.722;8.110;2023-04-23T09:44:32;2.13;;;1.33;;
7471;SDS011;3777;48.722;8.110;2023-04-23T09:47:04;1.83;;;1.60;;
7471;SDS011;3777;48.722;8.110;2023-04-23T09:49:43;2.10;;;1.40;;
7471;SDS011;3777;48.722;8.110;2023-04-23T09:52:11;1.50;;;1.40;;
7471;SDS011;3777;48.722;8.110;2023-04-23T09:54:38;1.98;;;1.30;;
7471;SDS011;3777;48.722;8.110;2023-04-23T09:57:06;1.52;;;1.35;;
7471;SDS011;3777;48.722;8.110;2023-04-23T09:59:34;2.28;;;1.27;;
7471;SDS011;3777;48.722;8.110;2023-04-23T10:02:02;1.42;;;1.20;;
7471;SDS011;3777;48.722;8.110;2023-04-23T10:04:30;1.85;;;1.30;;
7471;SDS011;3777;48.722;8.110;2023-04-23T10:06:58;1.98;;;1.30;;
7471;SDS011;3777;48.722;8.110;2023-04-23T10:09:27;2.45;;;1.45;;
7471;SDS011;3777;48.722;8.110;2023-04-23T10:11:55;1.42;;;1.30;;
7471;SDS011;3777;48.722;8.110;2023-04-23T10:14:25;1.58;;;1.35;;
7471;SDS011;3777;48.722;8.110;2023-04-23T10:16:55;1.60;;;1.30;;
7471;SDS011;3777;48.722;8.110;2023-04-23T10:19:23;2.25;;;1.35;;
7471;SDS011;3777;48.722;8.110;2023-04-23T10:21:52;2.30;;;1.35;;
7471;SDS011;3777;48.722;8.110;2023-04-23T10:24:22;1.70;;;1.40;;
7471;SDS011;3777;48.722;8.110;2023-04-23T10:26:52;1.50;;;1.30;;
7471;SDS011;3777;48.722;8.110;2023-04-23T10:29:26;1.55;;;1.30;;
7471;SDS011;3777;48.722;8.110;2023-04-23T10:31:56;1.70;;;1.40;;
7471;SDS011;3777;48.722;8.110;2023-04-23T10:34:25;1.80;;;1.48;;
7471;SDS011;3777;48.722;8.110;2023-04-23T10:36:53;1.48;;;1.30;;
7471;SDS011;3777;48.722;8.110;2023-04-23T10:39:21;1.40;;;1.30;;
7471;SDS011;3777;48.722;8.110;2023-04-23T10:41:50;1.25;;;1.15;;
7471;SDS011;3777;48.722;8.110;2023-04-23T10:44:18;3.00;;;1.27;;
7471;SDS011;3777;48.722;8.110;2023-04-23T10:46:51;2.10;;;1.38;;
7471;SDS011;3777;48.722;8.110;2023-04-23T10:49:20;2.05;;;1.40;;
7471;SDS011;3777;48.722;8.110;2023-04-23T10:51:48;1.65;;;1.23;;
7471;SDS011;3777;48.722;8.110;2023-04-23T10:54:25;1.77;;;1.00;;
7471;SDS011;3777;48.722;8.110;2023-04-23T10:56:56;1.30;;;1.20;;
7471;SDS011;3777;48.722;8.110;2023-04-23T10:59:25;1.98;;;1.30;;
7471;SDS011;3777;48.722;8.110;2023-04-23T11:01:56;1.27;;;1.17;;
7471;SDS011;3777;48.722;8.110;2023-04-23T11:04:25;1.40;;;1.30;;
7471;SDS011;3777;48.722;8.110;2023-04-23T11:06:53;1.45;;;1.35;;
7471;SDS011;3777;48.722;8.110;2023-04-23T11:12:06;1.65;;;1.20;;
7471;SDS011;3777;48.722;8.110;2023-04-23T11:14:36;2.78;;;1.33;;
7471;SDS011;3777;48.722;8.110;2023-04-23T11:17:13;2.65;;;1.40;;
7471;SDS011;3777;48.722;8.110;2023-04-23T11:20:03;1.23;;;1.13;;
7471;SDS011;3777;48.722;8.110;2023-04-23T11:22:35;2.03;;;1.40;;
7471;SDS011;3777;48.722;8.110;2023-04-23T11:25:03;2.08;;;1.58;;
7471;SDS011;3777;48.722;8.110;2023-04-23T11:27:34;2.30;;;1.50;;
7471;SDS011;3777;48.722;8.110;2023-04-23T11:30:05;2.42;;;1.58;;
7471;SDS011;3777;48.722;8.110;2023-04-23T11:32:38;5.43;;;1.67;;
7471;SDS011;3777;48.722;8.110;2023-04-23T11:35:06;1.38;;;1.20;;
7471;SDS011;3777;48.722;8.110;2023-04-23T11:37:37;1.98;;;1.20;;
7471;SDS011;3777;48.722;8.110;2023-04-23T11:40:06;1.60;;;1.30;;
7471;SDS011;3777;48.722;8.110;2023-04-23T11:42:39;1.80;;;1.50;;
7471;SDS011;3777;48.722;8.110;2023-04-23T11:45:19;1.67;;;1.20;;
7471;SDS011;3777;48.722;8.110;2023-04-23T11:47:50;1.50;;;1.40;;
7471;SDS011;3777;48.722;8.110;2023-04-23T11:50:20;1.23;;;1.10;;
7471;SDS011;3777;48.722;8.110;2023-04-23T11:52:48;1.30;;;1.13;;
7471;SDS011;3777;48.722;8.110;2023-04-23T11:55:16;1.20;;;1.10;;
7471;SDS011;3777;48.722;8.110;2023-04-23T11:57:44;2.08;;;1.10;;
7471;SDS011;3777;48.722;8.110;2023-04-23T12:00:13;2.58;;;1.45;;
7471;SDS011;3777;48.722;8.110;2023-04-23T12:02:53;2.28;;;1.33;;
7471;SDS011;3777;48.722;8.110;2023-04-23T12:05:22;1.30;;;1.20;;
7471;SDS011;3777;48.722;8.110;2023-04-23T12:07:53;1.45;;;1.10;;
7471;SDS011;3777;48.722;8.110;2023-04-23T12:10:20;1.20;;;1.10;;
7471;SDS011;3777;48.722;8.110;2023-04-23T12:12:49;2.40;;;1.10;;
7471;SDS011;3777;48.722;8.110;2023-04-23T12:15:16;2.42;;;1.20;;
7471;SDS011;3777;48.722;8.110;2023-04-23T12:17:47;1.27;;;1.13;;
7471;SDS011;3777;48.722;8.110;2023-04-23T12:20:17;1.75;;;1.30;;
7471;SDS011;3777;48.722;8.110;2023-04-23T12:22:45;1.25;;;1.13;;
7471;SDS011;3777;48.722;8.110;2023-04-23T12:25:12;2.45;;;1.20;;
7471;SDS011;3777;48.722;8.110;2023-04-23T12:27:40;1.50;;;1.27;;
7471;SDS011;3777;48.722;8.110;2023-04-23T12:30:09;1.10;;;1.00;;
7471;SDS011;3777;48.722;8.110;2023-04-23T12:32:37;1.35;;;1.10;;
7471;SDS011;3777;48.722;8.110;2023-04-23T12:35:04;1.73;;;1.35;;
7471;SDS011;3777;48.722;8.110;2023-04-23T12:37:35;2.53;;;1.20;;
7471;SDS011;3777;48.722;8.110;2023-04-23T12:40:03;1.75;;;1.10;;
7471;SDS011;3777;48.722;8.110;2023-04-23T12:42:31;3.17;;;1.33;;
7471;SDS011;3777;48.722;8.110;2023-04-23T12:45:07;1.23;;;1.10;;
7471;SDS011;3777;48.722;8.110;2023-04-23T12:47:35;1.42;;;1.20;;
7471;SDS011;3777;48.722;8.110;2023-04-23T12:50:02;1.60;;;1.13;;
7471;SDS011;3777;48.722;8.110;2023-04-23T12:52:29;1.15;;;1.05;;
7471;SDS011;3777;48.722;8.110;2023-04-23T12:54:58;1.60;;;1.17;;
7471;SDS011;3777;48.722;8.110;2023-04-23T12:57:25;2.08;;;1.40;;
7471;SDS011;3777;48.722;8.110;2023-04-23T12:59:53;1.50;;;1.17;;
7471;SDS011;3777;48.722;8.110;2023-04-23T13:02:21;1.48;;;1.00;;
7471;SDS011;3777;48.722;8.110;2023-04-23T13:04:49;1.30;;;1.20;;
7471;SDS011;3777;48.722;8.110;2023-04-23T13:07:18;1.27;;;1.17;;
7471;SDS011;3777;48.722;8.110;2023-04-23T13:09:45;1.30;;;1.00;;
7471;SDS011;3777;48.722;8.110;2023-04-23T13:12:13;1.98;;;1.20;;
7471;SDS011;3777;48.722;8.110;2023-04-23T13:14:40;1.35;;;1.10;;
7471;SDS011;3777;48.722;8.110;2023-04-23T13:17:07;1.23;;;1.13;;
7471;SDS011;3777;48.722;8.110;2023-04-23T13:19:34;1.23;;;1.08;;
7471;SDS011;3777;48.722;8.110;2023-04-23T13:22:03;1.25;;;1.15;;
7471;SDS011;3777;48.722;8.110;2023-04-23T13:24:30;2.05;;;1.45;;
7471;SDS011;3777;48.722;8.110;2023-04-23T13:26:57;2.20;;;1.20;;
7471;SDS011;3777;48.722;8.110;2023-04-23T13:29:27;1.55;;;1.20;;
7471;SDS011;3777;48.722;8.110;2023-04-23T13:31:54;2.08;;;1.23;;
7471;SDS011;3777;48.722;8.110;2023-04-23T13:34:22;1.80;;;1.20;;
7471;SDS011;3777;48.722;8.110;2023-04-23T13:36:49;1.73;;;1.30;;
7471;SDS011;3777;48.722;8.110;2023-04-23T13:39:16;1.50;;;1.00;;
7471;SDS011;3777;48.722;8.110;2023-04-23T13:41:44;1.90;;;1.05;;
7471;SDS011;3777;48.722;8.110;2023-04-23T13:44:11;1.70;;;1.17;;
7471;SDS011;3777;48.722;8.110;2023-04-23T13:46:41;2.67;;;1.42;;
7471;SDS011;3777;48.722;8.110;2023-04-23T13:49:08;1.80;;;1.17;;
7471;SDS011;3777;48.722;8.110;2023-04-23T13:51:35;1.80;;;1.40;;
7471;SDS011;3777;48.722;8.110;2023-04-23T13:54:02;1.52;;;1.30;;
7471;SDS011;3777;48.722;8.110;2023-04-23T13:56:29;1.70;;;1.40;;
7471;SDS011;3777;48.722;8.110;2023-04-23T13:58:56;2.83;;;1.38;;
7471;SDS011;3777;48.722;8.110;2023-04-23T14:01:26;1.88;;;1.15;;
7471;SDS011;3777;48.722;8.110;2023-04-23T14:03:56;3.83;;;1.60;;
7471;SDS011;3777;48.722;8.110;2023-04-23T14:06:23;1.65;;;1.20;;
7471;SDS011;3777;48.722;8.110;2023-04-23T14:08:50;3.50;;;1.40;;
7471;SDS011;3777;48.722;8.110;2023-04-23T14:11:17;2.95;;;1.42;;
7471;SDS011;3777;48.722;8.110;2023-04-23T14:13:44;1.90;;;1.33;;
7471;SDS011;3777;48.722;8.110;2023-04-23T14:16:11;2.58;;;1.35;;
7471;SDS011;3777;48.722;8.110;2023-04-23T14:18:38;2.08;;;1.40;;
7471;SDS011;3777;48.722;8.110;2023-04-23T14:21:07;2.83;;;1.90;;
7471;SDS011;3777;48.722;8.110;2023-04-23T14:26:32;1.90;;;1.70;;
7471;SDS011;3777;48.722;8.110;2023-04-23T14:29:01;1.88;;;1.30;;
7471;SDS011;3777;48.722;8.110;2023-04-23T14:31:33;1.48;;;1.35;;
7471;SDS011;3777;48.722;8.110;2023-04-23T14:34:02;2.72;;;1.33;;
7471;SDS011;3777;48.722;8.110;2023-04-23T14:36:30;2.03;;;1.48;;
7471;SDS011;3777;48.722;8.110;2023-04-23T14:38:57;2.63;;;1.50;;
7471;SDS011;3777;48.722;8.110;2023-04-23T14:41:29;2.42;;;1.40;;
7471;SDS011;3777;48.722;8.110;2023-04-23T14:43:57;2.33;;;1.30;;
7471;SDS011;3777;48.722;8.110;2023-04-23T14:46:25;2.10;;;1.30;;
7471;SDS011;3777;48.722;8.110;2023-04-23T14:48:52;1.77;;;1.27;;
7471;SDS011;3777;48.722;8.110;2023-04-23T14:51:19;1.77;;;1.38;;
7471;SDS011;3777;48.722;8.110;2023-04-23T14:53:48;1.92;;;1.30;;
7471;SDS011;3777;48.722;8.110;2023-04-23T14:56:15;2.30;;;1.40;;
7471;SDS011;3777;48.722;8.110;2023-04-23T14:58:42;2.65;;;1.50;;
7471;SDS011;3777;48.722;8.110;2023-04-23T15:01:09;2.17;;;1.30;;
7471;SDS011;3777;48.722;8.110;2023-04-23T15:03:36;1.65;;;1.40;;
7471;SDS011;3777;48.722;8.110;2023-04-23T15:06:03;2.08;;;1.40;;
7471;SDS011;3777;48.722;8.110;2023-04-23T15:08:31;1.77;;;1.20;;
7471;SDS011;3777;48.722;8.110;2023-04-23T15:10:59;2.45;;;1.63;;
7471;SDS011;3777;48.722;8.110;2023-04-23T15:13:35;3.33;;;1.55;;
7471;SDS011;3777;48.722;8.110;2023-04-23T15:16:08;2.38;;;1.30;;
7471;SDS011;3777;48.722;8.110;2023-04-23T15:18:45;2.85;;;1.15;;
7471;SDS011;3777;48.722;8.110;2023-04-23T15:21:11;2.55;;;1.30;;
7471;SDS011;3777;48.722;8.110;2023-04-23T15:23:38;4.88;;;1.10;;
7471;SDS011;3777;48.722;8.110;2023-04-23T15:26:07;2.42;;;1.30;;